Lake City, Iowa
Current Conditions -  °F | °C
As of 7:15 PM on Friday 24 Oct 2014 (Local Time) from KCIN Reporting Station
Clear Clear  
Wind Chill: 59°   Ceiling: Unl
Heat Index: 59°   Visibility: 10mi
Dew Point: 54°   Wind: 6mph
Humidity: 82%   Direction: 280°W
Pressure: 29.93"   Gusts: NA
Location:  42.27°N, 94.73°W
Report Text: KCIN 250015Z AUTO 28005KT 10SM CLR 15/12 A2993 RMK AO2
Loading
Personal Weather Stations






























Interactive Weather Map
Tropical Storm Tracking
New forecast layout! Learn more

10-Day Weather Forecast

Advertisements
Track Severe Weather on mobile